CheckWX is a tool to help pilots better visualize weather data.  It is not intended as a substitute for an official pre-flight weather briefing.

11:00:15 UTC

KBVY METAR
Beverly Regional Airport
Beverly, Massachusetts, USA
Current

1 hour ago

KBVY 160953Z AUTO 00000KT 10SM CLR 16/14 A3005 RMK AO2 SLP169 T01610139
Observed
Jul-16 @ 09:53 UTC
Visibility
10 SM
Flight Rules
VFR
Cloud Levels
  • Clear skies
Temperature
16°C / 61°F
Dewpoint
14°C / 57°F
Humidity
88%
Altimeter
30.05" Hg
Pressure
1017.62 hPa
Previous

2 hours ago

KBVY 160853Z AUTO 00000KT 10SM CLR 16/14 A3003 RMK AO2 SLP164 T01560139 55001
Observed
Jul-16 @ 08:53 UTC
Visibility
10 SM
Flight Rules
VFR
Cloud Levels
  • Clear skies
Temperature
16°C / 61°F
Dewpoint
14°C / 57°F
Humidity
88%
Altimeter
30.03" Hg
Pressure
1016.92 hPa
Previous

3 hours ago

KBVY 160753Z AUTO 00000KT 10SM CLR 17/14 A3003 RMK AO2 SLP162 T01720139
Observed
Jul-16 @ 07:53 UTC
Visibility
10 SM
Flight Rules
VFR
Cloud Levels
  • Clear skies
Temperature
17°C / 63°F
Dewpoint
14°C / 57°F
Humidity
83%
Altimeter
30.03" Hg
Pressure
1016.92 hPa